METAR Data
IDs: Format: Raw Decoded Include TAF

Data at: 1729 UTC 16 Oct 2021

KDKR 161715Z AUTO 34007G16KT 10SM 21/03 A3032 RMK AO2
KDKR 161655Z AUTO 03008G19KT 10SM 21/04 A3034 RMK AO2
KDKR 161635Z AUTO 03013KT 10SM 20/04 A3034 RMK AO2
KDKR 161615Z AUTO 02012KT 10SM 20/03 A3034 RMK AO2
KDKR 161555Z AUTO 03011G19KT 10SM 19/04 A3034 RMK AO2
KDKR 161535Z AUTO 04007G12KT 10SM 19/05 A3035 RMK AO2
KDKR 161515Z AUTO 01007G12KT 10SM 18/06 A3035 RMK AO2
KDKR 161455Z AUTO 02010KT 10SM 17/06 A3034 RMK AO2
KDKR 161435Z AUTO 01005G10KT 10SM 17/07 A3034 RMK AO2
KDKR 161415Z AUTO 36007G12KT 10SM 16/07 A3034 RMK AO2
KDKR 161355Z AUTO 36004KT 10SM 15/08 A3033 RMK AO2
KDKR 161335Z AUTO 00000KT 10SM 14/09 A3032 RMK AO2
KDKR 161315Z AUTO 00000KT 10SM 12/09 A3031 RMK AO2
KDKR 161255Z AUTO 00000KT 10SM 10/09 A3030 RMK AO2
KDKR 161235Z AUTO 00000KT 10SM 10/09 A3030 RMK AO2
KDKR 161215Z AUTO 00000KT 10SM 10/08 A3029 RMK AO2
KDKR 161155Z AUTO 00000KT 10SM 11/08 A3029 RMK AO2
KDKR 161135Z AUTO 00000KT 10SM 12/08 A3028 RMK AO2
KDKR 161115Z AUTO 00000KT 10SM 13/08 A3027 RMK AO2
KDKR 161055Z AUTO 36005KT 10SM 13/07 A3027 RMK AO2
KDKR 161035Z AUTO 36006KT 10SM 14/07 A3026 RMK AO2
KDKR 161015Z AUTO 36005G10KT 10SM 14/07 A3025 RMK AO2
KDKR 160955Z AUTO 36006KT 10SM 14/07 A3025 RMK AO2
KDKR 160935Z AUTO 36005KT 10SM 14/07 A3024 RMK AO2
KDKR 160915Z AUTO 36007KT 10SM 15/07 A3023 RMK AO2
KDKR 160855Z AUTO 36007G13KT 10SM 15/07 A3022 RMK AO2
KDKR 160835Z AUTO 35006G13KT 10SM 15/07 A3022 RMK AO2
KDKR 160815Z AUTO 35007KT 10SM 15/07 A3022 RMK AO2
KDKR 160755Z AUTO 35007G12KT 10SM 16/07 A3023 RMK AO2
KDKR 160735Z AUTO 34007G13KT 10SM 16/07 A3022 RMK AO2
KDKR 160715Z AUTO 34004KT 10SM 15/09 A3023 RMK AO2
KDKR 160655Z AUTO 34003KT 10SM 15/09 A3022 RMK AO2
KDKR 160635Z AUTO 00000KT 10SM 16/09 A3021 RMK AO2
KDKR 160615Z AUTO 35005KT 10SM 16/09 A3021 RMK AO2
KDKR 160555Z AUTO 00000KT 10SM 16/09 A3020 RMK AO2
KDKR 160535Z AUTO 36004KT 10SM 17/09 A3020 RMK AO2
KDKR 160515Z AUTO 35003KT 10SM 18/09 A3020 RMK AO2
KDKR 160455Z AUTO 35007G13KT 320V020 10SM 18/09 A3019 RMK AO2
KDKR 160435Z AUTO 36007KT 10SM 18/09 A3018 RMK AO2
KDKR 160415Z AUTO 35006KT 10SM 19/10 A3017 RMK AO2
KDKR 160355Z AUTO 34009KT 10SM 19/10 A3016 RMK AO2
KDKR 160335Z AUTO 34008KT 10SM 19/11 A3015 RMK AO2
KDKR 160315Z AUTO 34007G16KT 10SM 20/12 A3013 RMK AO2
KDKR 160255Z AUTO 34008G15KT 320V020 10SM 20/12 A3012 RMK AO2
KDKR 160235Z AUTO 35008G14KT 10SM 20/14 A3010 RMK AO2
KDKR 160215Z AUTO 33009KT 10SM 20/15 A3010 RMK AO2
KDKR 160155Z AUTO VRB06G12KT 10SM 21/16 A3008 RMK AO2
KDKR 160135Z AUTO 33009KT 10SM 21/17 A3007 RMK AO2
KDKR 160115Z AUTO 33006G15KT 10SM 22/17 A3006 RMK AO2
KDKR 160055Z AUTO 33009KT 10SM 22/18 A3005 RMK AO2
KDKR 160035Z AUTO 32012G19KT 10SM 23/18 A3003 RMK AO2
KDKR 160015Z AUTO 31007G15KT 10SM 24/18 A3002 RMK AO2
KDKR 152355Z AUTO 31010G19KT 10SM 25/18 A3000 RMK AO2
KDKR 152335Z AUTO 31008G16KT 10SM 26/18 A2999 RMK AO2
KDKR 152315Z AUTO 32007G12KT 10SM 27/18 A2997 RMK AO2
KDKR 152255Z AUTO 32006G13KT 10SM 27/18 A2996 RMK AO2
KDKR 152235Z AUTO 31011KT 10SM 28/18 A2996 RMK AO2
KDKR 152215Z AUTO 31011KT 10SM 28/20 A2995 RMK AO2
KDKR 152155Z AUTO 32011KT 10SM 29/20 A2994 RMK AO2
KDKR 152135Z AUTO 31012KT 10SM 28/21 A2994 RMK AO2
KDKR 152115Z AUTO 28011G17KT 10SM 30/22 A2993 RMK AO2
KDKR 152055Z AUTO 30009KT 10SM 31/22 A2992 RMK AO2
KDKR 152035Z AUTO 29009KT 10SM 30/23 A2992 RMK AO2
KDKR 152015Z AUTO 27006KT 10SM 30/23 A2992 RMK AO2
KDKR 151955Z AUTO 00000G13KT 4SM -RA HZ 28/24 A2992 RMK AO2
KDKR 151935Z AUTO 26008KT 220V280 10SM 31/22 A2992 RMK AO2
KDKR 151915Z AUTO 25007KT 10SM 31/23 A2992 RMK AO2
KDKR 151855Z AUTO 23007KT 10SM 31/23 A2993 RMK AO2
KDKR 151835Z AUTO 26008KT 10SM 31/23 A2994 RMK AO2
KDKR 151815Z AUTO 22008KT 10SM 31/23 A2995 RMK AO2
KDKR 151755Z AUTO 24007KT 10SM 30/24 A2995 RMK AO2
KDKR 151735Z AUTO 22007G16KT 10SM 30/23 A2996 RMK AO2
KDKR 151715Z AUTO 24009KT 10SM 29/24 A2997 RMK AO2
KDKR 151655Z AUTO 25010G16KT 10SM 29/24 A2997 RMK AO2
KDKR 151635Z AUTO 25011KT 10SM 29/24 A2997 RMK AO2
KDKR 151615Z AUTO 24010G16KT 210V280 10SM 29/24 A2997 RMK AO2
KDKR 151555Z AUTO 23009G14KT 10SM 27/24 A2996 RMK AO2
KDKR 151535Z AUTO 24008G13KT 10SM 26/24 A2996 RMK AO2
KDKR 151515Z AUTO 24007KT 9SM 26/24 A2996 RMK AO2
KDKR 151455Z AUTO 23007KT 9SM 26/25 A2996 RMK AO2
KDKR 151435Z AUTO 23008KT 10SM 26/25 A2995 RMK AO2
KDKR 151415Z AUTO VRB04KT 9SM 25/25 A2994 RMK AO2
KDKR 151355Z AUTO 21004KT 7SM 25/25 A2994 RMK AO2
KDKR 151335Z AUTO 00000KT 5SM BR 24/24 A2993 RMK AO2
KDKR 151315Z AUTO 00000KT 3SM BR 24/24 A2992 RMK AO2
KDKR 151255Z AUTO VRB04KT 2SM BR 23/24 A2991 RMK AO2
KDKR 151235Z AUTO 00000KT 2SM BR 23/24 A2991 RMK AO2
KDKR 151215Z AUTO 00000KT 4SM BR 23/23 A2990 RMK AO2
KDKR 151155Z AUTO 00000KT 5SM BR 23/23 A2990 RMK AO2
KDKR 151135Z AUTO 16003KT 5SM BR 23/23 A2990 RMK AO2
KDKR 151115Z AUTO 00000KT 5SM BR 23/23 A2990 RMK AO2
KDKR 151055Z AUTO 17004KT 6SM BR 24/24 A2989 RMK AO2
KDKR 151035Z AUTO 16005KT 6SM BR 24/24 A2989 RMK AO2
KDKR 151015Z AUTO 18005KT 6SM BR 24/24 A2988 RMK AO2
KDKR 150955Z AUTO 17006KT 6SM BR 23/24 A2988 RMK AO2
KDKR 150935Z AUTO 16007KT 3SM BR 23/23 A2988 RMK AO2
KDKR 150915Z AUTO 16006KT 2 1/2SM BR 24/24 A2987 RMK AO2
KDKR 150855Z AUTO 16003KT 2SM BR 23/24 A2987 RMK AO2
KDKR 150835Z AUTO 16005KT 1SM BR 23/23 A2987 RMK AO2
KDKR 150815Z AUTO 15003KT 1SM BR 23/23 A2988 RMK AO2
KDKR 150755Z AUTO 12003KT 1 1/2SM BR 23/23 A2988 RMK AO2
KDKR 150735Z AUTO 14004KT 2SM BR 23/23 A2989 RMK AO2
KDKR 150715Z AUTO 00000KT 8SM 23/23 A2989 RMK AO2
KDKR 150655Z AUTO 00000KT 7SM 23/23 A2989 RMK AO2
KDKR 150635Z AUTO 00000KT 7SM 22/22 A2989 RMK AO2
KDKR 150615Z AUTO 00000KT 8SM 22/22 A2989 RMK AO2
KDKR 150555Z AUTO 00000KT 9SM 23/23 A2989 RMK AO2
KDKR 150535Z AUTO 00000KT 10SM 23/23 A2989 RMK AO2